TimeMDT,TemperatureF,Dew PointF,Humidity,Sea Level PressureIn,VisibilityMPH,Wind Direction,Wind SpeedMPH,Gust SpeedMPH,PrecipitationIn,Events,Conditions,WindDirDegrees,DateUTC
12:53 AM,64.0,43.0,46,29.85,10.0,SSE,11.5,-,N/A,,Clear,160,2013-07-04 06:53:00
1:53 AM,64.0,44.1,48,29.85,10.0,South,9.2,-,N/A,,Clear,170,2013-07-04 07:53:00
2:53 AM,63.0,44.1,50,29.83,10.0,South,9.2,-,N/A,,Clear,170,2013-07-04 08:53:00
3:53 AM,63.0,45.0,52,29.84,10.0,South,9.2,-,N/A,,Clear,170,2013-07-04 09:53:00
4:53 AM,62.1,46.0,56,29.84,10.0,SSE,5.8,-,N/A,,Clear,150,2013-07-04 10:53:00
5:53 AM,61.0,46.0,58,29.85,10.0,SSE,6.9,-,N/A,,Partly Cloudy,150,2013-07-04 11:53:00
6:53 AM,66.0,48.0,52,29.84,10.0,South,9.2,-,N/A,,Scattered Clouds,190,2013-07-04 12:53:00
7:53 AM,69.1,48.0,47,29.85,10.0,SSW,11.5,-,N/A,,Partly Cloudy,200,2013-07-04 13:53:00
8:53 AM,73.0,50.0,44,29.86,10.0,SSW,11.5,-,N/A,,Clear,200,2013-07-04 14:53:00
9:53 AM,80.1,51.1,36,29.84,10.0,SSW,9.2,-,N/A,,Clear,210,2013-07-04 15:53:00
10:53 AM,84.9,50.0,30,29.83,10.0,South,12.7,24.2,N/A,,Clear,180,2013-07-04 16:53:00
11:53 AM,88.0,44.1,22,29.82,10.0,SSW,16.1,23.0,N/A,,Clear,210,2013-07-04 17:53:00
12:53 PM,91.0,45.0,20,29.79,10.0,South,13.8,23.0,N/A,,Clear,190,2013-07-04 18:53:00
1:53 PM,93.0,45.0,19,29.77,10.0,South,13.8,21.9,N/A,,Clear,170,2013-07-04 19:53:00
2:53 PM,93.0,44.1,18,29.77,10.0,SSW,5.8,-,N/A,,Clear,200,2013-07-04 20:53:00
3:53 PM,91.0,44.1,20,29.75,10.0,SE,9.2,18.4,N/A,,Clear,130,2013-07-04 21:53:00
4:53 PM,89.1,48.0,24,29.75,10.0,ESE,9.2,-,N/A,,Clear,120,2013-07-04 22:53:00
5:51 PM,84.2,48.2,29,29.85,10.0,ESE,9.2,-,N/A,Thunderstorm,Mostly Cloudy,110,2013-07-04 23:51:00
5:53 PM,84.9,48.0,28,29.76,10.0,ESE,9.2,-,N/A,Thunderstorm,Mostly Cloudy,110,2013-07-04 23:53:00
6:08 PM,84.2,46.4,27,29.85,10.0,ESE,12.7,-,N/A,,Mostly Cloudy,110,2013-07-05 00:08:00
6:29 PM,86.0,42.8,22,29.86,10.0,SE,8.1,-,N/A,Thunderstorm,Mostly Cloudy,140,2013-07-05 00:29:00
6:44 PM,87.8,44.6,22,29.84,10.0,SE,13.8,-,N/A,,Mostly Cloudy,140,2013-07-05 00:44:00
6:53 PM,87.1,46.0,24,29.74,10.0,SSE,11.5,-,N/A,,Partly Cloudy,150,2013-07-05 00:53:00
7:53 PM,82.0,46.0,28,29.75,10.0,SE,8.1,-,N/A,,Scattered Clouds,130,2013-07-05 01:53:00
8:53 PM,75.9,48.9,38,29.77,10.0,SE,6.9,-,N/A,,Clear,140,2013-07-05 02:53:00
9:53 PM,73.0,48.0,41,29.78,10.0,SSE,6.9,-,N/A,,Clear,150,2013-07-05 03:53:00
10:53 PM,75.9,46.0,35,29.76,10.0,South,8.1,-,N/A,,Clear,170,2013-07-05 04:53:00
11:53 PM,73.0,46.0,38,29.76,10.0,South,5.8,-,N/A,,Partly Cloudy,170,2013-07-05 05:53:00